Montezuma, Iowa
Current Conditions -  °F | °C
As of 10:15 PM on Friday 24 Oct 2014 (Local Time) from KGGI Reporting Station
Moderate Fog Moderate Fog  
Wind Chill: 55°   Ceiling: 500
Heat Index: 55°   Visibility: 0.5mi
Dew Point: 54°   Wind: 5mph
Humidity: 97%   Direction: 220°SW
Pressure: 29.95"   Gusts: NA
Location:  41.59°N, 92.53°W
Report Text: KGGI 250315Z AUTO 22004KT 1/2SM FG VV005 13/12 A2995 RMK AO2 T01280123
Loading
Personal Weather Stations






























Interactive Weather Map
Tropical Storm Tracking
New forecast layout! Learn more

10-Day Weather Forecast

Advertisements
Track Severe Weather on mobile